createdAt,value
2018-03-27T00:01:13.261Z,9.13
2018-03-27T00:03:41.699Z,9.60
2018-03-27T00:06:10.115Z,8.80
2018-03-27T00:08:38.434Z,9.53
2018-03-27T00:11:06.718Z,10.73
2018-03-27T00:13:35.192Z,8.63
2018-03-27T00:16:03.507Z,7.83
2018-03-27T00:18:32.243Z,9.37
2018-03-27T00:21:00.504Z,8.70
2018-03-27T00:23:28.801Z,7.90
2018-03-27T00:25:57.084Z,8.73
2018-03-27T00:28:43.726Z,7.60
2018-03-27T00:31:30.141Z,9.87
2018-03-27T00:34:17.223Z,9.67
2018-03-27T00:37:04.563Z,8.77
2018-03-27T00:39:50.898Z,9.67
2018-03-27T00:42:43.324Z,9.60
2018-03-27T00:45:11.856Z,9.13
2018-03-27T00:47:40.208Z,10.00
2018-03-27T00:50:08.578Z,11.52
2018-03-27T00:52:37.383Z,10.40
2018-03-27T00:55:05.738Z,11.32
2018-03-27T00:57:34.817Z,12.90
2018-03-27T01:00:03.159Z,11.60
2018-03-27T01:02:31.470Z,12.05
2018-03-27T01:05:05.334Z,11.30
2018-03-27T01:07:33.814Z,11.18
2018-03-27T01:10:02.109Z,11.77
2018-03-27T01:12:30.804Z,11.75
2018-03-27T01:14:59.397Z,11.63
2018-03-27T01:17:27.816Z,9.23
2018-03-27T01:19:56.192Z,8.47
2018-03-27T01:22:24.667Z,9.53
2018-03-27T01:24:53.904Z,10.63
2018-03-27T01:27:22.278Z,10.03
2018-03-27T01:29:50.748Z,11.85
2018-03-27T01:32:19.187Z,10.40
2018-03-27T01:34:48.374Z,12.50
2018-03-27T01:37:16.708Z,12.23
2018-03-27T01:39:45.002Z,14.17
2018-03-27T01:42:14.367Z,14.23
2018-03-27T01:44:42.814Z,14.20
2018-03-27T01:47:11.248Z,12.70
2018-03-27T01:49:40.665Z,15.37
2018-03-27T01:52:09.141Z,14.17
2018-03-27T01:54:37.417Z,15.65
2018-03-27T01:57:05.762Z,14.17
2018-03-27T01:59:34.114Z,16.67
2018-03-27T02:02:03.166Z,17.07
2018-03-27T02:04:31.462Z,16.07
2018-03-27T02:06:59.746Z,19.33
2018-03-27T02:09:28.157Z,16.43
2018-03-27T02:12:02.100Z,19.00
2018-03-27T02:14:36.130Z,17.37
2018-03-27T02:17:09.884Z,16.63
2018-03-27T02:19:43.693Z,16.48
2018-03-27T02:22:12.099Z,18.02
2018-03-27T02:24:40.488Z,16.67
2018-03-27T02:27:08.932Z,18.37
2018-03-27T02:29:37.239Z,18.87
2018-03-27T02:32:05.543Z,14.53
2018-03-27T02:34:33.877Z,18.48
2018-03-27T02:37:02.328Z,19.13
2018-03-27T02:39:31.608Z,18.43
2018-03-27T02:42:00.022Z,22.07
2018-03-27T02:44:28.359Z,21.67
2018-03-27T02:46:56.688Z,20.80
2018-03-27T02:49:25.110Z,21.25
2018-03-27T02:51:53.445Z,23.12
2018-03-27T02:54:22.005Z,19.87
2018-03-27T02:56:50.548Z,23.95
2018-03-27T02:59:18.869Z,22.07
2018-03-27T03:01:47.233Z,22.23
2018-03-27T03:04:17.510Z,22.60
2018-03-27T03:06:45.899Z,23.93
2018-03-27T03:09:14.332Z,26.48
2018-03-27T03:11:42.859Z,24.70
2018-03-27T03:14:11.304Z,24.80
2018-03-27T03:16:39.619Z,22.23
2018-03-27T03:19:07.928Z,23.85
2018-03-27T03:21:37.017Z,23.73
2018-03-27T03:24:06.164Z,22.60
2018-03-27T03:26:34.824Z,23.77
2018-03-27T03:29:03.763Z,22.42
2018-03-27T03:31:32.083Z,23.67
2018-03-27T03:34:01.172Z,24.23
2018-03-27T03:36:31.272Z,26.55
2018-03-27T03:38:59.682Z,24.40
2018-03-27T03:41:27.944Z,24.90
2018-03-27T03:43:57.171Z,24.03
2018-03-27T03:46:25.452Z,28.17
2018-03-27T03:48:53.769Z,25.62
2018-03-27T03:51:22.083Z,27.87
2018-03-27T03:53:50.620Z,20.93
2018-03-27T03:56:19.253Z,32.47
2018-03-27T03:58:47.557Z,25.67
2018-03-27T04:01:15.863Z,27.40
2018-03-27T04:03:44.145Z,27.80
2018-03-27T04:06:13.578Z,23.23
2018-03-27T04:08:42.590Z,24.30
2018-03-27T04:11:10.878Z,26.97
2018-03-27T04:13:39.163Z,29.33
2018-03-27T04:16:07.509Z,29.40
2018-03-27T04:18:35.962Z,32.67
2018-03-27T04:21:05.008Z,34.23
2018-03-27T04:23:33.393Z,35.93
2018-03-27T04:26:01.863Z,36.27
2018-03-27T04:28:30.339Z,34.77
2018-03-27T04:30:58.697Z,33.04
2018-03-27T04:33:27.135Z,38.20
2018-03-27T04:35:56.681Z,38.65
2018-03-27T04:38:25.288Z,36.70
2018-03-27T04:40:53.754Z,38.00
2018-03-27T04:43:22.334Z,36.10
2018-03-27T04:45:50.834Z,37.83
2018-03-27T04:48:19.242Z,37.60
2018-03-27T04:50:47.654Z,34.97
2018-03-27T04:53:16.724Z,35.50
2018-03-27T04:55:45.139Z,39.35
2018-03-27T04:58:13.643Z,40.73
2018-03-27T05:00:41.966Z,36.27
2018-03-27T05:03:10.568Z,32.33
2018-03-27T05:05:39.818Z,40.67
2018-03-27T05:08:09.969Z,36.75
2018-03-27T05:10:38.326Z,39.80
2018-03-27T05:13:06.615Z,41.53
2018-03-27T05:15:34.894Z,38.27
2018-03-27T05:18:04.245Z,42.00
2018-03-27T05:20:32.615Z,33.97
2018-03-27T05:23:01.170Z,29.70
2018-03-27T05:25:29.576Z,31.27
2018-03-27T05:27:57.923Z,26.40
2018-03-27T05:30:26.189Z,32.13
2018-03-27T05:32:54.514Z,35.42
2018-03-27T05:35:23.650Z,35.47
2018-03-27T05:37:52.171Z,26.40
2018-03-27T05:40:21.197Z,30.70
2018-03-27T05:42:49.613Z,26.23
2018-03-27T05:45:17.949Z,30.67
2018-03-27T05:47:46.422Z,34.13
2018-03-27T05:50:15.118Z,29.67
2018-03-27T05:52:43.404Z,38.03
2018-03-27T05:55:11.818Z,32.50
2018-03-27T05:57:41.025Z,34.63
2018-03-27T06:00:09.352Z,29.00
2018-03-27T06:02:37.798Z,31.30
2018-03-27T06:05:06.906Z,31.97
2018-03-27T06:07:35.359Z,30.50
2018-03-27T06:10:05.854Z,31.30
2018-03-27T06:12:34.325Z,30.50
2018-03-27T06:15:02.618Z,27.33
2018-03-27T06:17:31.019Z,26.50
2018-03-27T06:19:59.413Z,36.07
2018-03-27T06:22:28.460Z,31.12
2018-03-27T06:24:56.945Z,24.90
2018-03-27T06:27:25.452Z,30.10
2018-03-27T06:29:53.934Z,29.80
2018-03-27T06:32:22.417Z,32.27
2018-03-27T06:34:50.813Z,35.90
2018-03-27T06:37:19.218Z,37.63
2018-03-27T06:39:47.680Z,39.50
2018-03-27T06:42:16.231Z,39.23
2018-03-27T06:44:44.825Z,41.83
2018-03-27T06:47:14.035Z,45.17
2018-03-27T06:49:43.113Z,42.85
2018-03-27T06:52:12.155Z,45.70
2018-03-27T06:54:40.463Z,35.80
2018-03-27T06:57:08.861Z,40.80
2018-03-27T06:59:37.328Z,42.00
2018-03-27T07:02:06.010Z,35.88
2018-03-27T07:04:35.841Z,39.72
2018-03-27T07:07:04.396Z,37.70
2018-03-27T07:09:32.813Z,34.08
2018-03-27T07:12:01.245Z,37.17
2018-03-27T07:14:29.655Z,33.53
2018-03-27T07:16:58.204Z,34.53
2018-03-27T07:19:26.514Z,33.70
2018-03-27T07:21:55.814Z,34.20
2018-03-27T07:24:24.221Z,32.40
2018-03-27T07:26:52.535Z,33.13
2018-03-27T07:29:20.895Z,29.57
2018-03-27T07:31:49.243Z,35.75
2018-03-27T07:34:18.432Z,33.43
2018-03-27T07:36:47.698Z,33.07
2018-03-27T07:39:16.327Z,28.50
2018-03-27T07:41:44.673Z,31.67
2018-03-27T07:44:14.273Z,29.23
2018-03-27T07:46:42.717Z,31.83
2018-03-27T07:49:11.239Z,28.13
2018-03-27T07:51:39.564Z,26.07
2018-03-27T07:54:07.891Z,25.12
2018-03-27T07:56:36.336Z,26.63
2018-03-27T07:59:04.724Z,23.33
2018-03-27T08:01:33.190Z,25.73
2018-03-27T08:04:01.816Z,25.88
2018-03-27T08:06:30.204Z,24.17
2018-03-27T08:08:58.526Z,25.03
2018-03-27T08:11:26.919Z,19.37
2018-03-27T08:13:56.156Z,22.83
2018-03-27T08:16:24.628Z,22.53
2018-03-27T08:18:53.124Z,21.73
2018-03-27T08:21:21.530Z,23.00
2018-03-27T08:23:49.851Z,21.10
2018-03-27T08:26:18.169Z,18.90
2018-03-27T08:28:47.250Z,18.90
2018-03-27T08:31:15.648Z,16.77
2018-03-27T08:33:44.735Z,18.70
2018-03-27T08:36:13.924Z,16.30
2018-03-27T08:38:42.204Z,14.95
2018-03-27T08:41:11.362Z,16.87
2018-03-27T08:43:39.673Z,16.00
2018-03-27T08:46:08.058Z,16.67
2018-03-27T08:48:37.321Z,27.50
2018-03-27T08:51:05.613Z,16.03
2018-03-27T08:53:34.131Z,13.43
2018-03-27T08:56:03.229Z,15.27
2018-03-27T08:58:32.281Z,15.43
2018-03-27T09:01:02.074Z,15.40
2018-03-27T09:03:30.396Z,12.37
2018-03-27T09:05:59.546Z,11.57
2018-03-27T09:08:27.991Z,9.90
2018-03-27T09:10:56.312Z,12.35
2018-03-27T09:13:24.669Z,12.23
2018-03-27T09:15:54.110Z,8.60
2018-03-27T09:18:22.759Z,8.53
2018-03-27T09:20:51.351Z,7.80
2018-03-27T09:23:19.789Z,8.30
2018-03-27T09:25:48.545Z,7.37
2018-03-27T09:28:16.984Z,6.90
2018-03-27T09:30:45.336Z,5.80
2018-03-27T09:33:13.832Z,6.07
2018-03-27T09:35:42.425Z,6.45
2018-03-27T09:38:10.790Z,6.10
2018-03-27T09:40:39.150Z,9.20
2018-03-27T09:43:08.394Z,6.37
2018-03-27T09:45:38.001Z,5.50
2018-03-27T09:48:06.554Z,4.63
2018-03-27T09:50:34.897Z,6.10
2018-03-27T09:53:04.125Z,5.40
2018-03-27T09:55:32.583Z,6.37
2018-03-27T09:58:01.713Z,7.37
2018-03-27T10:00:35.526Z,6.50
2018-03-27T10:03:03.841Z,7.30
2018-03-27T10:05:33.022Z,6.87
2018-03-27T10:08:01.576Z,7.78
2018-03-27T10:10:30.286Z,8.80
2018-03-27T10:12:58.607Z,8.90
2018-03-27T10:15:27.191Z,14.67
2018-03-27T10:17:56.488Z,9.43
2018-03-27T10:20:25.588Z,8.13
2018-03-27T10:22:53.881Z,7.60
2018-03-27T10:27:57.038Z,8.43
2018-03-27T10:30:26.426Z,7.50
2018-03-27T10:32:54.728Z,6.97
2018-03-27T10:35:23.023Z,7.23
2018-03-27T10:37:52.228Z,7.47
2018-03-27T10:40:21.302Z,7.60
2018-03-27T10:42:51.427Z,7.50
2018-03-27T10:45:20.563Z,7.30
2018-03-27T10:47:48.883Z,6.63
2018-03-27T10:50:17.316Z,7.13
2018-03-27T10:52:45.734Z,6.97
2018-03-27T10:55:14.163Z,6.72
2018-03-27T10:57:42.751Z,7.32
2018-03-27T11:00:11.115Z,8.17
2018-03-27T11:02:40.387Z,7.50
2018-03-27T11:05:08.746Z,7.07
2018-03-27T11:07:37.216Z,7.07
2018-03-27T11:10:05.659Z,6.80
2018-03-27T11:12:35.037Z,7.53
2018-03-27T11:15:03.685Z,7.13
2018-03-27T11:17:32.055Z,7.73
2018-03-27T11:20:00.487Z,7.70
2018-03-27T11:22:29.804Z,8.05
2018-03-27T11:24:58.256Z,7.82
2018-03-27T11:27:27.636Z,7.07
2018-03-27T11:29:55.992Z,8.15
2018-03-27T11:32:24.461Z,7.67
2018-03-27T11:34:54.137Z,7.60
2018-03-27T11:37:22.796Z,7.97
2018-03-27T11:39:51.137Z,7.70
2018-03-27T11:42:19.498Z,7.83
2018-03-27T11:44:47.878Z,8.10
2018-03-27T11:47:16.569Z,7.70
2018-03-27T11:49:44.925Z,8.20
2018-03-27T11:52:13.227Z,7.90
2018-03-27T11:54:41.596Z,7.10
2018-03-27T11:57:10.651Z,7.80
2018-03-27T11:59:38.946Z,8.05
2018-03-27T12:02:08.147Z,9.10
2018-03-27T12:04:37.335Z,8.30
2018-03-27T12:07:07.292Z,8.90
2018-03-27T12:09:35.610Z,8.13
2018-03-27T12:12:04.839Z,9.93
2018-03-27T12:14:34.062Z,9.38
2018-03-27T12:17:02.529Z,9.43
2018-03-27T12:19:30.885Z,10.93
2018-03-27T12:21:59.946Z,10.55
2018-03-27T12:24:28.289Z,10.97
2018-03-27T12:26:56.656Z,10.97
2018-03-27T12:29:25.096Z,10.20
2018-03-27T12:31:54.336Z,9.93
2018-03-27T12:34:22.867Z,11.05
2018-03-27T12:36:51.289Z,9.97
2018-03-27T12:39:20.693Z,10.98
2018-03-27T12:41:49.006Z,10.77
2018-03-27T12:44:17.448Z,10.97
2018-03-27T12:46:46.091Z,10.93
2018-03-27T12:49:14.553Z,11.02
2018-03-27T12:51:42.905Z,10.13
2018-03-27T12:54:11.376Z,11.35
2018-03-27T12:56:39.737Z,12.07
2018-03-27T12:59:08.957Z,12.07
2018-03-27T13:01:37.469Z,13.20
2018-03-27T13:04:05.830Z,13.93
2018-03-27T13:06:34.196Z,13.00
2018-03-27T13:09:02.587Z,13.50
2018-03-27T13:11:31.158Z,12.13
2018-03-27T13:13:59.747Z,13.67
2018-03-27T13:16:28.121Z,13.03
2018-03-27T13:18:56.474Z,13.63
2018-03-27T13:21:25.698Z,13.43
2018-03-27T13:23:54.036Z,12.60
2018-03-27T13:26:23.110Z,12.33
2018-03-27T13:28:51.430Z,14.40
2018-03-27T13:31:19.813Z,12.83
2018-03-27T13:33:48.586Z,12.17
2018-03-27T13:36:17.842Z,12.97
2018-03-27T13:38:47.058Z,14.13
2018-03-27T13:41:15.393Z,14.40
2018-03-27T13:43:43.863Z,14.87
2018-03-27T13:46:12.328Z,13.60
2018-03-27T13:48:40.777Z,12.17
2018-03-27T13:51:09.181Z,13.97
2018-03-27T13:53:37.667Z,13.30
2018-03-27T13:56:06.009Z,14.43
2018-03-27T13:58:34.297Z,10.90
2018-03-27T14:01:03.005Z,13.80
2018-03-27T14:03:31.455Z,13.17
2018-03-27T14:05:59.946Z,13.20
2018-03-27T14:08:29.583Z,12.98
2018-03-27T14:10:58.121Z,14.07
2018-03-27T14:13:26.504Z,12.30
2018-03-27T14:15:54.921Z,12.37
2018-03-27T14:18:23.253Z,12.70
2018-03-27T14:20:51.622Z,13.57
2018-03-27T14:23:20.155Z,14.40
2018-03-27T14:25:48.651Z,13.82
2018-03-27T14:28:17.113Z,13.67
2018-03-27T14:30:45.572Z,13.70
2018-03-27T14:33:13.874Z,14.87
2018-03-27T14:35:42.505Z,13.57
2018-03-27T14:38:10.861Z,13.40
2018-03-27T14:40:39.339Z,15.17
2018-03-27T14:43:10.577Z,16.23
2018-03-27T14:45:39.048Z,16.10
2018-03-27T14:48:07.612Z,15.63
2018-03-27T14:50:36.750Z,15.63
2018-03-27T14:53:05.253Z,16.90
2018-03-27T14:55:33.559Z,16.27
2018-03-27T14:58:02.902Z,17.40
2018-03-27T15:00:31.359Z,16.23
2018-03-27T15:02:59.966Z,17.20
2018-03-27T15:05:28.363Z,17.85
2018-03-27T15:07:56.751Z,17.90
2018-03-27T15:10:25.079Z,17.90
2018-03-27T15:12:54.625Z,17.60
2018-03-27T15:15:22.997Z,17.77
2018-03-27T15:17:52.442Z,16.03
2018-03-27T15:20:21.767Z,18.47
2018-03-27T15:22:50.881Z,17.70
2018-03-27T15:25:19.457Z,16.87
2018-03-27T15:27:47.935Z,16.97
2018-03-27T15:30:16.530Z,17.58
2018-03-27T15:32:44.939Z,19.13
2018-03-27T15:35:13.352Z,16.42
2018-03-27T15:37:42.461Z,16.47
2018-03-27T15:40:11.064Z,16.90
2018-03-27T15:42:39.782Z,18.60
2018-03-27T15:45:08.157Z,16.73
2018-03-27T15:47:36.512Z,16.98
2018-03-27T15:50:05.068Z,17.97
2018-03-27T15:52:33.823Z,19.00
2018-03-27T15:55:02.149Z,19.57
2018-03-27T15:57:30.580Z,18.37
2018-03-27T16:00:00.562Z,17.63
2018-03-27T16:02:28.881Z,17.25
2018-03-27T16:04:58.117Z,16.67
2018-03-27T16:07:26.489Z,18.00
2018-03-27T16:09:55.330Z,18.43
2018-03-27T16:12:23.645Z,18.20
2018-03-27T16:14:52.082Z,19.33
2018-03-27T16:17:21.104Z,21.00
2018-03-27T16:19:50.433Z,19.23
2018-03-27T16:22:18.752Z,17.10
2018-03-27T16:24:47.365Z,16.33
2018-03-27T16:27:16.646Z,18.87
2018-03-27T16:29:45.109Z,16.43
2018-03-27T16:32:13.579Z,17.33
2018-03-27T16:34:41.939Z,17.98
2018-03-27T16:37:10.379Z,18.40
2018-03-27T16:39:39.559Z,16.48
2018-03-27T16:42:07.967Z,17.93
2018-03-27T16:44:37.133Z,20.87
2018-03-27T16:47:06.282Z,19.10
2018-03-27T16:49:34.717Z,18.47
2018-03-27T16:52:03.058Z,19.50
2018-03-27T16:54:31.493Z,21.97
2018-03-27T16:57:00.737Z,19.23
2018-03-27T16:59:29.636Z,19.37
2018-03-27T17:01:58.177Z,18.67
2018-03-27T17:04:26.596Z,18.40
2018-03-27T17:06:54.942Z,21.15
2018-03-27T17:09:24.331Z,20.07
2018-03-27T17:11:52.755Z,17.73
2018-03-27T17:14:21.273Z,19.83
2018-03-27T17:16:49.860Z,20.40
2018-03-27T17:19:20.040Z,19.60
2018-03-27T17:21:49.194Z,15.30
2018-03-27T17:24:19.352Z,16.25
2018-03-27T17:26:47.724Z,17.50
2018-03-27T17:29:16.015Z,17.93
2018-03-27T17:31:44.588Z,15.43
2018-03-27T17:34:13.082Z,18.67
2018-03-27T17:36:41.439Z,16.37
2018-03-27T17:39:09.849Z,15.17
2018-03-27T17:41:38.276Z,14.40
2018-03-27T17:44:06.649Z,13.88
2018-03-27T17:46:35.266Z,14.90
2018-03-27T17:49:03.805Z,12.20
2018-03-27T17:51:32.133Z,12.83
2018-03-27T17:54:01.589Z,13.20
2018-03-27T17:56:31.822Z,14.38
2018-03-27T17:59:01.134Z,14.55
2018-03-27T18:01:29.603Z,13.53
2018-03-27T18:03:58.013Z,15.65
2018-03-27T18:06:26.498Z,14.10
2018-03-27T18:08:55.196Z,14.47
2018-03-27T18:11:23.781Z,13.05
2018-03-27T18:13:52.969Z,15.23
2018-03-27T18:16:21.340Z,14.10
2018-03-27T18:18:49.719Z,15.47
2018-03-27T18:21:18.105Z,15.57
2018-03-27T18:23:46.476Z,15.20
2018-03-27T18:26:15.189Z,13.70
2018-03-27T18:28:43.569Z,16.00
2018-03-27T18:31:12.107Z,12.90
2018-03-27T18:33:40.439Z,9.77
2018-03-27T18:36:10.714Z,7.28
2018-03-27T18:38:39.532Z,6.32
2018-03-27T18:41:08.016Z,7.12
2018-03-27T18:43:36.641Z,7.07
2018-03-27T18:46:05.044Z,6.60
2018-03-27T18:48:33.357Z,7.07
2018-03-27T18:51:01.729Z,7.63
2018-03-27T18:53:30.101Z,7.03
2018-03-27T18:55:58.509Z,7.20
2018-03-27T18:58:27.640Z,7.43
2018-03-27T19:00:55.982Z,7.00
2018-03-27T19:03:25.229Z,6.50
2018-03-27T19:05:53.590Z,8.20
2018-03-27T19:08:22.007Z,8.40
2018-03-27T19:10:50.416Z,7.57
2018-03-27T19:13:18.733Z,8.00
2018-03-27T19:15:47.024Z,9.17
2018-03-27T19:18:15.385Z,8.23
2018-03-27T19:20:43.877Z,8.67
2018-03-27T19:23:12.313Z,9.83
2018-03-27T19:25:40.636Z,9.45
2018-03-27T19:28:09.079Z,10.33
2018-03-27T19:30:38.191Z,8.33
2018-03-27T19:33:06.573Z,10.10
2018-03-27T19:35:35.657Z,9.50
2018-03-27T19:38:04.716Z,9.60
2018-03-27T19:40:33.155Z,10.63
2018-03-27T19:43:01.541Z,10.67
2018-03-27T19:45:29.923Z,11.13
2018-03-27T19:47:58.240Z,9.83
2018-03-27T19:50:26.597Z,9.67
2018-03-27T19:52:55.018Z,9.98
2018-03-27T19:55:23.374Z,10.13
2018-03-27T19:57:51.690Z,8.60
2018-03-27T20:00:20.263Z,10.20
2018-03-27T20:02:50.714Z,10.13
2018-03-27T20:05:19.039Z,10.17
2018-03-27T20:07:47.983Z,10.45
2018-03-27T20:10:16.364Z,10.30
2018-03-27T20:12:44.690Z,9.80
2018-03-27T20:15:13.884Z,9.93
2018-03-27T20:17:42.216Z,9.17
2018-03-27T20:20:10.679Z,10.27
2018-03-27T20:22:39.130Z,11.20
2018-03-27T20:25:08.390Z,11.55
2018-03-27T20:27:37.426Z,10.75
2018-03-27T20:30:06.859Z,11.35
2018-03-27T20:32:35.558Z,11.03
2018-03-27T20:35:04.282Z,10.68
2018-03-27T20:37:32.709Z,11.37
2018-03-27T20:40:01.057Z,11.73
2018-03-27T20:42:30.276Z,11.40
2018-03-27T20:44:58.637Z,10.57
2018-03-27T20:47:27.839Z,10.53
2018-03-27T20:49:56.942Z,10.95
2018-03-27T20:52:26.254Z,11.35
2018-03-27T20:54:54.670Z,11.93
2018-03-27T20:57:23.247Z,11.70
2018-03-27T20:59:51.684Z,11.45
2018-03-27T21:02:20.071Z,12.57
2018-03-27T21:04:48.416Z,10.83
2018-03-27T21:07:17.008Z,12.10
2018-03-27T21:09:47.261Z,10.80
2018-03-27T21:12:15.785Z,11.50
2018-03-27T21:14:44.182Z,11.70
2018-03-27T21:17:13.355Z,10.93
2018-03-27T21:19:41.790Z,9.73
2018-03-27T21:22:10.272Z,10.80
2018-03-27T21:24:38.688Z,14.73
2018-03-27T21:27:07.279Z,22.73
2018-03-27T21:29:35.620Z,14.52
2018-03-27T21:32:03.959Z,10.70
2018-03-27T21:34:32.366Z,9.73
2018-03-27T21:37:00.769Z,11.00
2018-03-27T21:39:29.119Z,10.80
2018-03-27T21:41:57.607Z,11.10
2018-03-27T21:44:26.135Z,9.67
2018-03-27T21:46:54.517Z,10.40
2018-03-27T21:49:22.904Z,10.00
2018-03-27T21:51:51.259Z,9.68
2018-03-27T21:54:19.821Z,9.83
2018-03-27T21:56:48.140Z,10.90
2018-03-27T21:59:16.454Z,9.77
2018-03-27T22:01:45.603Z,9.97
2018-03-27T22:04:13.957Z,8.90
2018-03-27T22:06:42.301Z,9.70
2018-03-27T22:09:12.413Z,9.93
2018-03-27T22:11:41.728Z,9.23
2018-03-27T22:14:10.175Z,9.77
2018-03-27T22:16:38.677Z,11.03
2018-03-27T22:19:07.821Z,9.77
2018-03-27T22:21:36.523Z,10.63
2018-03-27T22:24:06.460Z,8.65
2018-03-27T22:26:35.794Z,9.57
2018-03-27T22:29:04.126Z,9.27
2018-03-27T22:31:32.555Z,13.35
2018-03-27T22:34:00.866Z,20.50
2018-03-27T22:36:29.191Z,11.35
2018-03-27T22:38:58.277Z,10.80
2018-03-27T22:41:27.401Z,9.70
2018-03-27T22:43:55.711Z,10.50
2018-03-27T22:46:23.986Z,8.43
2018-03-27T22:48:52.315Z,10.13
2018-03-27T22:51:20.629Z,10.23
2018-03-27T22:53:48.905Z,10.20
2018-03-27T22:56:17.457Z,8.70
2018-03-27T22:58:45.831Z,10.27
2018-03-27T23:01:14.317Z,8.07
2018-03-27T23:03:42.664Z,10.90
2018-03-27T23:06:11.066Z,9.70
2018-03-27T23:08:39.605Z,10.07
2018-03-27T23:11:08.174Z,9.23
2018-03-27T23:13:36.530Z,9.20
2018-03-27T23:16:04.836Z,10.10
2018-03-27T23:18:33.166Z,9.70
2018-03-27T23:21:01.550Z,9.17
2018-03-27T23:23:30.031Z,9.52
2018-03-27T23:25:58.546Z,8.83
2018-03-27T23:28:26.837Z,9.48
2018-03-27T23:30:55.148Z,8.63
2018-03-27T23:33:24.351Z,9.93
2018-03-27T23:35:53.615Z,10.27
2018-03-27T23:38:23.219Z,8.90
2018-03-27T23:40:54.160Z,8.43
2018-03-27T23:43:25.080Z,9.93
2018-03-27T23:45:53.414Z,9.10
2018-03-27T23:48:21.835Z,9.40
2018-03-27T23:50:50.161Z,8.60
2018-03-27T23:53:19.254Z,10.13
2018-03-27T23:55:47.550Z,9.50
2018-03-27T23:58:15.946Z,8.87
